Terminal Aerodrome Forecast
Issued by NWS Shreveport, LA

Home | Current Version | Previous Version | Text Only | Print | Product List | Glossary On
Versions: 1 2 3 4 5 6 7 8 9 10 11 12 13 14 15 16 17 18 19 20 21 22 23
000
FTUS44 KSHV 281247 AAA
TAFMLU
TAF AMD
KMLU 281247Z 2813/2912 00000KT P6SM SKC
     FM281500 VRB03KT P6SM SCT035
     FM282100 VRB05KT P6SM VCTS BKN050CB
     FM290100 00000KT P6SM FEW050 SCT250
     FM290900 00000KT 2SM BR BKN005=

USA.gov is the U.S. government's official web portal to all federal, state and local government web resources and services.